createdAt,value
2022-10-25T00:00:30.956Z,494
2022-10-25T00:05:32.944Z,504
2022-10-25T00:10:34.710Z,489.13274
2022-10-25T00:15:36.608Z,466.0339
2022-10-25T00:20:38.520Z,448.91803
2022-10-25T00:25:40.261Z,432.88889
2022-10-25T00:30:42.034Z,425.25
2022-10-25T00:35:44.016Z,414.22901
2022-10-25T00:40:46.007Z,407.15789
2022-10-25T00:45:47.810Z,400.2963
2022-10-25T00:50:49.617Z,400.2963
2022-10-25T00:55:51.408Z,387.16547
2022-10-25T01:00:53.078Z,380.87943
2022-10-25T01:05:54.876Z,365.91781
2022-10-25T01:10:56.367Z,357.42282
2022-10-25T01:15:57.806Z,360.21622
2022-10-25T01:20:59.380Z,365.91781
2022-10-25T01:26:00.893Z,368.82759
2022-10-25T01:31:02.447Z,374.76923
2022-10-25T01:36:04.555Z,371.77778
2022-10-25T01:41:06.018Z,368.82759
2022-10-25T01:46:07.771Z,368.82759
2022-10-25T01:51:09.357Z,368.82759
2022-10-25T01:56:10.827Z,374.76923
2022-10-25T02:01:12.692Z,390.37681
2022-10-25T02:06:14.877Z,396.94118
2022-10-25T02:11:16.328Z,417.84615
2022-10-25T02:16:17.945Z,440.77419
2022-10-25T02:21:19.828Z,453.09091
2022-10-25T02:26:21.459Z,453.09091
2022-10-25T02:31:22.889Z,466.0339
2022-10-25T02:36:24.698Z,479.65217
2022-10-25T02:41:26.122Z,479.65217
2022-10-25T02:46:27.591Z,484.35088
2022-10-25T02:51:29.128Z,484.35088
2022-10-25T02:56:30.643Z,489.13274
2022-10-25T03:01:32.199Z,489.13274
2022-10-25T03:06:34.234Z,489.13274
2022-10-25T03:11:35.887Z,479.65217
2022-10-25T03:16:37.649Z,489.13274
2022-10-25T03:21:41.885Z,470.49573
2022-10-25T03:26:43.701Z,457.33333
2022-10-25T03:31:45.278Z,440.77419
2022-10-25T03:36:47.113Z,432.88889
2022-10-25T03:41:48.660Z,429.03937
2022-10-25T03:46:50.123Z,429.03937
2022-10-25T03:51:53.965Z,417.84615
2022-10-25T03:56:59.551Z,414.22901
2022-10-25T04:02:01.547Z,414.22901
2022-10-25T04:07:03.615Z,403.70149
2022-10-25T04:12:05.571Z,390.37681
2022-10-25T04:17:07.304Z,380.87943
2022-10-25T04:22:09.428Z,384
2022-10-25T04:27:11.466Z,387.16547
2022-10-25T04:32:13.302Z,384
2022-10-25T04:37:15.727Z,368.82759
2022-10-25T04:42:17.732Z,403.70149
2022-10-25T04:47:19.476Z,387.16547
2022-10-25T04:52:21.362Z,393.63504
2022-10-25T04:57:23.121Z,466.0339
2022-10-25T05:02:24.621Z,470.49573
2022-10-25T05:07:26.855Z,489.13274
2022-10-25T05:12:28.854Z,414.22901
2022-10-25T05:17:30.507Z,440.77419
2022-10-25T05:22:32.083Z,425.25
2022-10-25T05:27:33.938Z,432.88889
2022-10-25T05:32:35.846Z,489.13274
2022-10-25T05:37:37.723Z,592.42105
2022-10-25T05:42:39.396Z,628.44444
2022-10-25T05:47:40.840Z,613.56522
2022-10-25T05:52:42.740Z,723.74684
2022-10-25T05:57:44.568Z,704.49383
2022-10-25T06:02:46.714Z,787.83562
2022-10-25T06:07:49.083Z,787.83562
2022-10-25T06:12:51.140Z,776.43243
2022-10-25T06:17:52.844Z,744
2022-10-25T06:22:54.859Z,849.88235
2022-10-25T06:27:56.441Z,863.40299
2022-10-25T06:32:59.849Z,921.77778
2022-10-25T06:38:02.574Z,877.33333
2022-10-25T06:43:04.222Z,953.83607
2022-10-25T06:48:05.822Z,891.69231
2022-10-25T06:53:07.479Z,921.77778
2022-10-25T06:58:09.007Z,906.5
2022-10-25T07:03:10.478Z,877.33333
2022-10-25T07:08:13.028Z,937.54839
2022-10-25T07:13:14.508Z,1024.70175
2022-10-25T07:18:16.283Z,877.33333
2022-10-25T07:23:18.314Z,953.83607
2022-10-25T07:28:19.889Z,921.77778
2022-10-25T07:33:21.483Z,906.5
2022-10-25T07:38:26.994Z,988.0678
2022-10-25T07:43:29.421Z,953.83607
2022-10-25T07:48:31.019Z,906.5
2022-10-25T07:53:32.681Z,891.69231
2022-10-25T07:58:34.610Z,921.77778
2022-10-25T08:03:36.503Z,787.83562
2022-10-25T08:08:38.212Z,824
2022-10-25T08:13:39.907Z,970.66667
2022-10-25T08:18:41.350Z,877.33333
2022-10-25T08:23:42.862Z,970.66667
2022-10-25T08:28:44.528Z,937.54839
2022-10-25T08:33:46.104Z,906.5
2022-10-25T08:38:47.925Z,937.54839
2022-10-25T08:43:49.688Z,849.88235
2022-10-25T08:48:51.306Z,953.83607
2022-10-25T08:58:54.384Z,937.54839
2022-10-25T09:03:55.811Z,921.77778
2022-10-25T09:08:57.448Z,970.66667
2022-10-25T09:13:58.888Z,891.69231
2022-10-25T09:19:00.487Z,906.5
2022-10-25T09:24:02.365Z,937.54839
2022-10-25T09:29:03.962Z,937.54839
2022-10-25T09:34:05.450Z,953.83607
2022-10-25T09:39:07.062Z,906.5
2022-10-25T09:44:08.553Z,970.66667
2022-10-25T09:49:10.247Z,953.83607
2022-10-25T09:54:12.026Z,970.66667
2022-10-25T09:59:13.970Z,921.77778
2022-10-25T10:04:15.902Z,953.83607
2022-10-25T10:09:17.861Z,970.66667
2022-10-25T10:14:19.656Z,1024.70175
2022-10-25T10:19:21.473Z,953.83607
2022-10-25T10:24:23.268Z,937.54839
2022-10-25T10:29:25.070Z,953.83607
2022-10-25T10:34:26.872Z,1024.70175
2022-10-25T10:39:28.983Z,1064
2022-10-25T10:44:30.758Z,988.0678
2022-10-25T10:49:32.328Z,1064
2022-10-25T10:54:33.858Z,1024.70175
2022-10-25T10:59:35.421Z,1006.06897
2022-10-25T11:04:37.091Z,1006.06897
2022-10-25T11:09:39.056Z,1044
2022-10-25T11:14:40.786Z,988.0678
2022-10-25T11:19:42.464Z,1128.61538
2022-10-25T11:24:44.277Z,1106.26415
2022-10-25T11:29:46.240Z,1024.70175
2022-10-25T11:34:47.989Z,1084.74074
2022-10-25T11:39:49.999Z,1128.61538
2022-10-25T11:44:51.475Z,1064
2022-10-25T11:49:56.829Z,1024.70175
2022-10-25T11:54:58.886Z,1006.06897
2022-10-25T12:00:00.755Z,1064
2022-10-25T12:05:02.202Z,1024.70175
2022-10-25T12:10:03.960Z,1024.70175
2022-10-25T12:15:05.428Z,1044
2022-10-25T12:20:07.316Z,1176
2022-10-25T12:25:09.120Z,1176
2022-10-25T12:30:10.799Z,1176
2022-10-25T12:35:12.274Z,1227.33333
2022-10-25T12:40:14.213Z,1128.61538
2022-10-25T12:45:15.734Z,1024.70175
2022-10-25T12:55:19.713Z,1064
2022-10-25T13:00:21.617Z,1151.84314
2022-10-25T13:05:23.205Z,1176
2022-10-25T13:15:27.256Z,1151.84314
2022-10-25T13:20:29.131Z,1227.33333
2022-10-25T13:25:30.781Z,1151.84314
2022-10-25T13:30:32.684Z,1227.33333
2022-10-25T13:35:34.677Z,1283.13043
2022-10-25T13:40:37.818Z,1254.6383
2022-10-25T13:45:39.240Z,1376.55814
2022-10-25T13:50:40.708Z,1344
2022-10-25T13:55:42.332Z,1376.55814
2022-10-25T14:00:47.798Z,1344
2022-10-25T14:05:53.124Z,1254.6383
2022-10-25T14:10:55.438Z,1201.14286
2022-10-25T14:15:56.973Z,1151.84314
2022-10-25T14:20:58.502Z,1254.6383
2022-10-25T14:26:00.133Z,1227.33333
2022-10-25T14:31:01.782Z,1201.14286
2022-10-25T14:36:03.251Z,1201.14286
2022-10-25T14:41:05.088Z,1128.61538
2022-10-25T14:46:06.594Z,1024.70175
2022-10-25T14:51:08.222Z,1151.84314
2022-10-25T14:56:09.785Z,1106.26415
2022-10-25T15:01:11.660Z,1084.74074
2022-10-25T15:06:13.415Z,1006.06897
2022-10-25T15:11:21.722Z,1064
2022-10-25T15:16:23.537Z,1106.26415
2022-10-25T15:21:25.307Z,953.83607
2022-10-25T15:26:27.322Z,988.0678
2022-10-25T15:31:29.135Z,1106.26415
2022-10-25T15:36:31.102Z,1106.26415
2022-10-25T15:41:33.350Z,1044
2022-10-25T15:46:35.149Z,1064
2022-10-25T15:51:36.967Z,988.0678
2022-10-25T15:56:38.916Z,824
2022-10-25T16:01:40.937Z,891.69231
2022-10-25T16:06:44.134Z,937.54839
2022-10-25T16:11:47.263Z,906.5
2022-10-25T16:16:49.247Z,877.33333
2022-10-25T16:21:51.269Z,849.88235
2022-10-25T16:26:53.510Z,811.60563
2022-10-25T16:31:55.803Z,744
2022-10-25T16:36:57.507Z,754.52632
2022-10-25T16:41:59.598Z,714
2022-10-25T16:47:01.325Z,644
2022-10-25T16:52:03.010Z,652.04598
2022-10-25T16:57:04.671Z,660.27907
2022-10-25T17:02:07.111Z,754.52632
2022-10-25T17:07:09.124Z,704.49383
2022-10-25T17:12:11.491Z,660.27907
2022-10-25T17:17:13.756Z,599.31915
2022-10-25T17:22:15.868Z,660.27907
2022-10-25T17:27:17.716Z,652.04598
2022-10-25T17:32:20.096Z,644
2022-10-25T17:37:22.199Z,677.33333
2022-10-25T17:42:24.676Z,668.70588
2022-10-25T17:47:26.328Z,668.70588
2022-10-25T17:52:28.080Z,668.70588
2022-10-25T17:57:29.812Z,652.04598
2022-10-25T18:02:31.655Z,636.13483
2022-10-25T18:07:34.997Z,660.27907
2022-10-25T18:12:37.161Z,566.22222
2022-10-25T18:17:38.733Z,613.56522
2022-10-25T18:22:40.392Z,644
2022-10-25T18:27:42.082Z,714
2022-10-25T18:32:43.746Z,704.49383
2022-10-25T18:37:45.368Z,714
2022-10-25T18:42:47.876Z,695.21951
2022-10-25T18:47:49.642Z,695.21951
2022-10-25T18:52:51.652Z,686.16867
2022-10-25T18:57:53.436Z,668.70588
2022-10-25T19:02:55.131Z,652.04598
2022-10-25T19:07:56.909Z,636.13483
2022-10-25T19:12:58.528Z,613.56522
2022-10-25T19:18:00.084Z,628.44444
2022-10-25T19:23:01.738Z,660.27907
2022-10-25T19:28:03.399Z,620.92308
2022-10-25T19:33:04.851Z,620.92308
2022-10-25T19:38:06.402Z,592.42105
2022-10-25T19:43:08.159Z,613.56522
2022-10-25T19:48:10.154Z,606.36559
2022-10-25T19:53:11.953Z,606.36559
2022-10-25T19:58:13.991Z,585.66667
2022-10-25T20:03:15.886Z,620.92308
2022-10-25T20:08:17.673Z,636.13483
2022-10-25T20:13:19.755Z,613.56522
2022-10-25T20:18:21.712Z,592.42105
2022-10-25T20:23:23.482Z,599.31915
2022-10-25T20:28:25.195Z,599.31915
2022-10-25T20:33:27.008Z,606.36559
2022-10-25T20:38:29.070Z,620.92308
2022-10-25T20:43:30.701Z,613.56522
2022-10-25T20:48:32.166Z,636.13483
2022-10-25T20:53:33.752Z,652.04598
2022-10-25T20:58:35.263Z,668.70588
2022-10-25T21:03:37.143Z,686.16867
2022-10-25T21:08:38.802Z,686.16867
2022-10-25T21:13:40.795Z,686.16867
2022-10-25T21:18:42.822Z,704.49383
2022-10-25T21:23:44.734Z,704.49383
2022-10-25T21:28:46.646Z,714
2022-10-25T21:33:50.180Z,704.49383
2022-10-25T21:38:58.001Z,677.33333
2022-10-25T21:43:59.934Z,677.33333
2022-10-25T21:49:01.535Z,668.70588
2022-10-25T21:54:03.021Z,686.16867
2022-10-25T21:59:05.041Z,660.27907
2022-10-25T22:04:06.702Z,677.33333
2022-10-25T22:09:08.321Z,695.21951
2022-10-25T22:14:10.088Z,704.49383
2022-10-25T22:19:11.818Z,714
2022-10-25T22:24:13.649Z,714
2022-10-25T22:29:15.765Z,714
2022-10-25T22:34:17.845Z,695.21951
2022-10-25T22:39:19.517Z,704.49383
2022-10-25T22:49:24.005Z,686.16867
2022-10-25T22:54:25.762Z,686.16867
2022-10-25T22:59:27.716Z,714
2022-10-25T23:04:29.663Z,723.74684
2022-10-25T23:09:31.621Z,620.92308
2022-10-25T23:14:33.730Z,547.92157
2022-10-25T23:19:35.838Z,566.22222
2022-10-25T23:24:37.764Z,579.05155
2022-10-25T23:29:39.782Z,566.22222
2022-10-25T23:34:41.663Z,599.31915
2022-10-25T23:39:43.538Z,677.33333
2022-10-25T23:44:45.494Z,652.04598
2022-10-25T23:49:47.265Z,668.70588
2022-10-25T23:54:49.055Z,668.70588
2022-10-25T23:59:50.986Z,695.21951
